Gordon Heights, New York
Current Conditions -  °F | °C
As of 4:56 AM on Monday 20 Oct 2014 (Local Time) from KISP Reporting Station
Clear Clear  
Wind Chill: 35°   Ceiling: Unl
Heat Index: 35°   Visibility: 10mi
Dew Point: 29°   Wind: 3mph
Humidity: 78%   Direction: 240°WSW
Pressure: 30.07"   Gusts: NA
Location:  40.8228°N, 72.9822°W
Report Text: KISP 200856Z AUTO 24003KT 10SM CLR 02/M02 A3007 RMK AO2 SLP182 T00171017 53008 $
Loading
Personal Weather Stations






























Interactive Weather Map
Tropical Storm Tracking
New forecast layout! Learn more

10-Day Weather Forecast

Advertisements
Track Severe Weather on mobile